Terminal Aerodrome Forecast
Issued by NWS Sioux Falls, SD

Home | Current Version | Previous Version | Graphics & Text | Print | Product List | Glossary Off
Versions: 1 2 3 4 5 6 7 8 9 10 11 12 13 14

000
FTUS43 KFSD 272322
TAFFSD
TAF
KFSD 272322Z 2800/2824 17006KT P6SM SCT250
     FM281000 17005KT 6SM MIFG SCT250
     FM281300 18007KT P6SM FEW250
     FM281500 18011KT P6SM FEW250=

USA.gov is the U.S. government's official web portal to all federal, state and local government web resources and services.